Time;durP1;ratioP1;P1;durP2;ratioP2;P2;SDS_P1;SDS_P2;PMS_P1;PMS_P2;Temp;Humidity;BMP_temperature;BMP_pressure;BME280_temperature;BME280_humidity;BME280_pressure;Samples;Min_cycle;Max_cycle;Signal;HPM_P1;HPM_P2
2022/05/26 00:00:20;;;;;;;;;;;28.60;48.30;;;;;;660239;30;854;-82
2022/05/26 00:00:41;;;;;;;;;;;28.70;48.50;;;;;;660040;30;1987;-80
2022/05/26 00:01:05;;;;;;;;;;;28.70;48.40;;;;;;660071;30;853;-81
2022/05/26 00:01:26;;;;;;;;;;;28.70;48.40;;;;;;660254;30;849;-81
2022/05/26 00:01:47;;;;;;;;;;;28.70;48.40;;;;;;660170;30;841;-80
2022/05/26 00:02:07;;;;;;;;;;;28.70;48.50;;;;;;660143;30;916;-80
2022/05/26 00:02:30;;;;;;;;;;;28.70;48.50;;;;;;660120;30;962;-81
2022/05/26 00:02:51;;;;;;;;;;;28.70;48.40;;;;;;660292;30;785;-81
2022/05/26 00:03:11;;;;;;;;;;;28.70;48.50;;;;;;660086;30;925;-81
2022/05/26 00:03:36;;;;;;;;;;;28.70;48.50;;;;;;660073;30;864;-81
2022/05/26 00:03:57;;;;;;;;;;;28.60;48.40;;;;;;660070;30;898;-80
2022/05/26 00:04:19;;;;;;;;;;;28.70;48.60;;;;;;660267;30;821;-79
2022/05/26 00:04:39;;;;;;;;;;;28.60;48.40;;;;;;660110;30;876;-79
2022/05/26 00:05:00;;;;;;;;;;;28.60;48.50;;;;;;660087;30;814;-82
2022/05/26 00:05:21;;;;;;;;;;;28.60;48.50;;;;;;660225;30;845;-80
2022/05/26 00:05:41;;;;;;;;;;;28.70;48.50;;;;;;660101;30;786;-81
2022/05/26 00:06:02;;;;;;;;;;;28.60;48.50;;;;;;659692;30;1323;-82
2022/05/26 00:06:23;;;;;;;;;;;28.60;48.50;;;;;;660294;30;924;-82
2022/05/26 00:06:43;;;;;;;;;;;28.60;48.60;;;;;;660090;30;837;-80
2022/05/26 00:07:04;;;;;;;;;;;28.60;48.50;;;;;;660096;30;797;-80
2022/05/26 00:07:24;;;;;;;;;;;28.70;48.70;;;;;;660142;30;805;-82
2022/05/26 00:07:45;;;;;;;;;;;28.60;48.60;;;;;;660190;30;951;-81
2022/05/26 00:08:06;;;;;;;;;;;28.60;48.70;;;;;;660139;30;829;-80
2022/05/26 00:08:27;;;;;;;;;;;28.60;48.70;;;;;;660166;30;840;-79
2022/05/26 00:08:47;;;;;;;;;;;28.60;48.50;;;;;;660183;30;817;-81
2022/05/26 00:09:08;;;;;;;;;;;28.70;48.60;;;;;;660153;30;908;-79
2022/05/26 00:09:29;;;;;;;;;;;28.60;48.60;;;;;;660136;30;837;-80
2022/05/26 00:09:49;;;;;;;;;;;28.60;48.70;;;;;;660169;30;881;-81
2022/05/26 00:10:10;;;;;;;;;;;28.60;48.60;;;;;;660062;30;853;-82
2022/05/26 00:10:31;;;;;;;;;;;28.60;48.70;;;;;;660144;30;853;-81
2022/05/26 00:10:52;;;;;;;;;;;28.70;48.70;;;;;;660212;30;863;-80
2022/05/26 00:11:20;;;;;;;;;;;28.60;48.60;;;;;;660174;30;802;-80
2022/05/26 00:11:40;;;;;;;;;;;28.60;48.70;;;;;;659973;30;972;-82
2022/05/26 00:12:01;;;;;;;;;;;28.60;48.70;;;;;;660026;30;863;-81
2022/05/26 00:12:22;;;;;;;;;;;28.60;48.80;;;;;;660283;30;794;-81
2022/05/26 00:12:42;;;;;;;;;;;28.60;48.80;;;;;;659775;30;1318;-79
2022/05/26 00:13:05;;;;;;;;;;;28.70;48.80;;;;;;660212;30;789;-81
2022/05/26 00:13:26;;;;;;;;;;;28.60;48.70;;;;;;662281;29;1303;-80
2022/05/26 00:13:46;;;;;;;;;;;28.60;49.90;;;;;;662509;29;797;-80
2022/05/26 00:14:08;;;;;;;;;;;28.70;49.10;;;;;;662408;29;919;-80
2022/05/26 00:14:30;;;;;;;;;;;28.60;48.90;;;;;;662493;29;824;-80
2022/05/26 00:14:51;;;;;;;;;;;28.70;50.00;;;;;;662494;29;860;-81
2022/05/26 00:15:13;;;;;;;;;;;28.60;48.80;;;;;;661751;29;903;-82
2022/05/26 00:15:34;;;;;;;;;;;28.60;48.90;;;;;;660044;30;924;-79
2022/05/26 00:15:54;;;;;;;;;;;28.60;48.90;;;;;;660093;30;896;-80
2022/05/26 00:16:15;;;;;;;;;;;28.60;48.80;;;;;;660119;30;879;-81
2022/05/26 00:16:43;;;;;;;;;;;28.60;48.90;;;;;;660116;30;864;-81
2022/05/26 00:17:03;;;;;;;;;;;28.60;48.90;;;;;;660144;30;824;-82
2022/05/26 00:17:24;;;;;;;;;;;28.60;48.90;;;;;;660135;30;868;-80
2022/05/26 00:17:44;;;;;;;;;;;28.60;48.90;;;;;;660034;30;880;-81
2022/05/26 00:18:05;;;;;;;;;;;28.60;48.90;;;;;;660118;30;872;-82
2022/05/26 00:18:26;;;;;;;;;;;28.60;48.90;;;;;;659894;30;1399;-79
2022/05/26 00:18:47;;;;;;;;;;;28.60;49.00;;;;;;660063;30;832;-82
2022/05/26 00:19:08;;;;;;;;;;;28.60;48.90;;;;;;659927;30;901;-82
2022/05/26 00:19:28;;;;;;;;;;;28.60;48.90;;;;;;660018;30;860;-79
2022/05/26 00:19:49;;;;;;;;;;;28.60;48.90;;;;;;660156;30;796;-79
2022/05/26 00:20:10;;;;;;;;;;;28.60;49.00;;;;;;660068;30;938;-79
2022/05/26 00:20:30;;;;;;;;;;;28.60;49.00;;;;;;660304;30;788;-80
2022/05/26 00:20:51;;;;;;;;;;;28.60;48.90;;;;;;660366;30;1967;-80
2022/05/26 00:21:11;;;;;;;;;;;28.60;49.00;;;;;;660272;30;836;-81
2022/05/26 00:21:32;;;;;;;;;;;28.60;49.00;;;;;;660441;30;908;-79
2022/05/26 00:21:52;;;;;;;;;;;28.60;50.10;;;;;;660259;30;1062;-80
2022/05/26 00:22:13;;;;;;;;;;;28.60;49.00;;;;;;660192;30;886;-78
2022/05/26 00:22:33;;;;;;;;;;;28.60;49.00;;;;;;660306;30;877;-80
2022/05/26 00:22:54;;;;;;;;;;;28.60;49.10;;;;;;660269;30;908;-81
2022/05/26 00:23:14;;;;;;;;;;;28.60;49.10;;;;;;660125;30;932;-80
2022/05/26 00:23:35;;;;;;;;;;;28.60;49.10;;;;;;660151;30;797;-81
2022/05/26 00:23:56;;;;;;;;;;;28.60;49.10;;;;;;660249;30;860;-80
2022/05/26 00:24:18;;;;;;;;;;;28.60;49.10;;;;;;660156;30;848;-79
2022/05/26 00:24:38;;;;;;;;;;;28.60;49.10;;;;;;660125;30;821;-79
2022/05/26 00:24:59;;;;;;;;;;;28.60;49.10;;;;;;660110;30;877;-80
2022/05/26 00:25:19;;;;;;;;;;;28.60;49.10;;;;;;660239;30;845;-79
2022/05/26 00:25:40;;;;;;;;;;;28.60;49.10;;;;;;660107;30;927;-79
2022/05/26 00:26:01;;;;;;;;;;;28.60;50.20;;;;;;660305;30;845;-81
2022/05/26 00:26:22;;;;;;;;;;;28.60;49.10;;;;;;660185;30;852;-80
2022/05/26 00:26:42;;;;;;;;;;;28.60;49.10;;;;;;660164;30;790;-80
2022/05/26 00:27:03;;;;;;;;;;;28.60;49.10;;;;;;660090;30;1352;-79
2022/05/26 00:27:23;;;;;;;;;;;28.60;49.00;;;;;;660186;30;785;-80
2022/05/26 00:27:44;;;;;;;;;;;28.60;49.00;;;;;;660128;30;794;-81
2022/05/26 00:28:05;;;;;;;;;;;28.60;49.00;;;;;;660069;30;774;-81
2022/05/26 00:28:25;;;;;;;;;;;28.60;48.90;;;;;;660158;30;897;-80
2022/05/26 00:28:46;;;;;;;;;;;28.60;48.90;;;;;;660102;30;876;-80
2022/05/26 00:29:06;;;;;;;;;;;28.60;48.90;;;;;;660060;30;897;-81
2022/05/26 00:29:27;;;;;;;;;;;28.60;48.90;;;;;;660006;30;910;-80
2022/05/26 00:29:47;;;;;;;;;;;28.60;48.80;;;;;;660022;30;829;-79
2022/05/26 00:30:08;;;;;;;;;;;28.60;48.80;;;;;;660046;30;927;-80
2022/05/26 00:30:29;;;;;;;;;;;28.60;48.90;;;;;;659914;30;896;-81
2022/05/26 00:30:49;;;;;;;;;;;28.60;48.80;;;;;;660307;30;798;-81
2022/05/26 00:31:10;;;;;;;;;;;28.60;48.80;;;;;;660033;30;903;-81
2022/05/26 00:31:31;;;;;;;;;;;28.60;48.80;;;;;;660013;30;908;-81
2022/05/26 00:31:51;;;;;;;;;;;28.70;48.80;;;;;;660161;30;884;-80
2022/05/26 00:32:13;;;;;;;;;;;28.70;48.80;;;;;;660137;30;887;-79
2022/05/26 00:32:34;;;;;;;;;;;28.70;48.80;;;;;;659941;30;924;-81
2022/05/26 00:32:56;;;;;;;;;;;28.70;48.80;;;;;;660177;30;849;-79
2022/05/26 00:33:17;;;;;;;;;;;28.70;48.70;;;;;;660236;30;809;-81
2022/05/26 00:33:37;;;;;;;;;;;28.70;48.70;;;;;;660091;30;806;-81
2022/05/26 00:33:58;;;;;;;;;;;28.70;48.70;;;;;;660093;30;881;-81
2022/05/26 00:34:18;;;;;;;;;;;28.70;48.70;;;;;;660103;30;915;-80
2022/05/26 00:34:39;;;;;;;;;;;28.70;48.70;;;;;;660139;30;888;-80
2022/05/26 00:34:59;;;;;;;;;;;28.70;48.60;;;;;;659679;30;1026;-81
2022/05/26 00:35:20;;;;;;;;;;;28.70;48.60;;;;;;660172;30;1007;-80
2022/05/26 00:35:41;;;;;;;;;;;28.70;48.60;;;;;;660117;30;848;-81
2022/05/26 00:36:03;;;;;;;;;;;28.70;48.60;;;;;;660107;30;816;-80
2022/05/26 00:36:41;;;;;;;;;;;28.70;48.60;;;;;;660207;30;980;-79
2022/05/26 00:37:05;;;;;;;;;;;28.70;48.60;;;;;;660110;30;974;-81
2022/05/26 00:37:26;;;;;;;;;;;28.70;48.60;;;;;;660110;30;805;-80
2022/05/26 00:37:47;;;;;;;;;;;28.70;48.60;;;;;;660112;30;912;-80
2022/05/26 00:38:09;;;;;;;;;;;28.70;48.60;;;;;;659235;30;1416;-81
2022/05/26 00:38:29;;;;;;;;;;;28.70;48.50;;;;;;659954;30;887;-80
2022/05/26 00:38:50;;;;;;;;;;;28.70;48.60;;;;;;659978;30;841;-80
2022/05/26 00:39:15;;;;;;;;;;;28.70;48.50;;;;;;659796;30;866;-80
2022/05/26 00:39:36;;;;;;;;;;;28.70;48.50;;;;;;659888;30;1655;-80
2022/05/26 00:39:56;;;;;;;;;;;28.70;48.40;;;;;;660023;30;847;-80
2022/05/26 00:40:17;;;;;;;;;;;28.70;48.40;;;;;;660157;30;849;-80
2022/05/26 00:40:38;;;;;;;;;;;28.70;48.40;;;;;;660063;30;805;-80
2022/05/26 00:41:03;;;;;;;;;;;28.70;48.40;;;;;;660016;30;2050;-80
2022/05/26 00:41:26;;;;;;;;;;;28.70;48.40;;;;;;660242;30;821;-81
2022/05/26 00:41:48;;;;;;;;;;;28.70;48.50;;;;;;660106;29;957;-81
2022/05/26 00:42:08;;;;;;;;;;;28.80;48.40;;;;;;660154;30;880;-82
2022/05/26 00:42:29;;;;;;;;;;;28.80;48.40;;;;;;660088;30;943;-81
2022/05/26 00:42:50;;;;;;;;;;;28.70;48.30;;;;;;660080;30;865;-81
2022/05/26 00:43:12;;;;;;;;;;;28.80;48.40;;;;;;659991;30;847;-80
2022/05/26 00:43:32;;;;;;;;;;;28.70;48.30;;;;;;660103;30;801;-81
2022/05/26 00:43:53;;;;;;;;;;;28.70;48.30;;;;;;660139;30;960;-81
2022/05/26 00:44:14;;;;;;;;;;;28.80;48.40;;;;;;660078;30;846;-80
2022/05/26 00:44:35;;;;;;;;;;;28.80;48.30;;;;;;660132;30;857;-81
2022/05/26 00:44:55;;;;;;;;;;;28.80;48.40;;;;;;660151;30;857;-81
2022/05/26 00:45:16;;;;;;;;;;;28.80;48.30;;;;;;660069;30;689;-80
2022/05/26 00:45:49;;;;;;;;;;;28.80;48.30;;;;;;660101;30;822;-80
2022/05/26 00:46:20;;;;;;;;;;;28.80;48.30;;;;;;660136;30;793;-80
2022/05/26 00:46:53;;;;;;;;;;;28.80;48.40;;;;;;660019;30;1341;-80
2022/05/26 00:47:23;;;;;;;;;;;28.80;48.30;;;;;;660011;30;897;-80
2022/05/26 00:47:44;;;;;;;;;;;28.80;48.30;;;;;;660043;30;801;-82
2022/05/26 00:48:07;;;;;;;;;;;28.80;48.30;;;;;;660559;30;813;-81
2022/05/26 00:48:34;;;;;;;;;;;28.80;48.30;;;;;;662721;29;2102;-80
2022/05/26 00:48:56;;;;;;;;;;;28.80;48.20;;;;;;662956;29;856;-81
2022/05/26 00:49:24;;;;;;;;;;;28.80;48.20;;;;;;662932;29;824;-80
2022/05/26 00:49:47;;;;;;;;;;;28.80;48.20;;;;;;662747;29;824;-81
2022/05/26 00:50:11;;;;;;;;;;;28.80;48.20;;;;;;662928;29;872;-81
2022/05/26 00:50:35;;;;;;;;;;;28.80;48.10;;;;;;660566;29;789;-82
2022/05/26 00:50:58;;;;;;;;;;;28.80;48.10;;;;;;660458;30;959;-80
2022/05/26 00:51:23;;;;;;;;;;;28.80;48.10;;;;;;660550;30;1055;-81
2022/05/26 00:51:44;;;;;;;;;;;28.80;48.10;;;;;;660399;30;959;-80
2022/05/26 00:52:06;;;;;;;;;;;28.80;48.10;;;;;;660554;30;818;-81
2022/05/26 00:52:29;;;;;;;;;;;28.80;48.10;;;;;;660431;30;905;-80
2022/05/26 00:52:54;;;;;;;;;;;28.80;48.10;;;;;;660532;30;992;-80
2022/05/26 00:53:21;;;;;;;;;;;28.80;48.10;;;;;;660535;30;950;-79
2022/05/26 00:53:54;;;;;;;;;;;28.80;48.10;;;;;;660455;30;601;-81
2022/05/26 00:54:19;;;;;;;;;;;28.80;48.00;;;;;;660464;30;907;-82
2022/05/26 00:54:40;;;;;;;;;;;28.80;48.10;;;;;;660481;30;887;-80
2022/05/26 00:55:03;;;;;;;;;;;28.80;48.10;;;;;;660449;30;901;-80
2022/05/26 00:55:35;;;;;;;;;;;28.80;48.10;;;;;;660484;30;972;-80
2022/05/26 00:56:05;;;;;;;;;;;28.80;48.10;;;;;;660586;30;821;-81
2022/05/26 00:56:32;;;;;;;;;;;28.80;48.10;;;;;;660544;30;988;-81
2022/05/26 00:56:56;;;;;;;;;;;28.80;48.10;;;;;;660638;30;857;-80
2022/05/26 00:57:49;;;;;;;;;;;28.80;48.10;;;;;;660376;30;1230;-81
2022/05/26 00:58:14;;;;;;;;;;;28.80;48.00;;;;;;650412;30;820;-81
2022/05/26 00:58:37;;;;;;;;;;;28.80;48.00;;;;;;650482;30;862;-80
2022/05/26 00:59:02;;;;;;;;;;;28.80;48.00;;;;;;650418;30;913;-82
2022/05/26 00:59:28;;;;;;;;;;;28.80;48.10;;;;;;650529;30;1023;-81
2022/05/26 00:59:55;;;;;;;;;;;28.80;48.00;;;;;;650538;30;814;-82
2022/05/26 01:00:19;;;;;;;;;;;28.80;48.00;;;;;;650431;30;1036;-80
2022/05/26 01:00:39;;;;;;;;;;;28.80;49.10;;;;;;650352;30;1265;-81
2022/05/26 01:01:00;;;;;;;;;;;28.80;48.00;;;;;;650451;30;858;-81
2022/05/26 01:01:21;;;;;;;;;;;28.80;48.00;;;;;;650577;30;956;-80
2022/05/26 01:01:42;;;;;;;;;;;28.80;48.00;;;;;;650468;30;964;-81
2022/05/26 01:02:03;;;;;;;;;;;28.80;48.10;;;;;;650314;30;936;-82
2022/05/26 01:02:26;;;;;;;;;;;28.80;48.10;;;;;;650585;30;1192;-80
2022/05/26 01:03:07;;;;;;;;;;;28.80;48.10;;;;;;650463;30;822;-81
2022/05/26 01:03:28;;;;;;;;;;;28.80;48.00;;;;;;640872;30;1210;-81
2022/05/26 01:03:51;;;;;;;;;;;28.80;48.10;;;;;;648414;30;1133;-82
2022/05/26 01:04:13;;;;;;;;;;;28.80;48.10;;;;;;650347;30;1005;-80
2022/05/26 01:04:42;;;;;;;;;;;28.70;48.00;;;;;;650393;30;918;-81
2022/05/26 01:05:14;;;;;;;;;;;28.80;48.10;;;;;;650451;30;834;-80
2022/05/26 01:05:51;;;;;;;;;;;28.70;48.10;;;;;;650426;30;826;-82
2022/05/26 01:06:14;;;;;;;;;;;28.70;48.00;;;;;;650471;30;826;-80
2022/05/26 01:06:38;;;;;;;;;;;28.70;48.00;;;;;;650404;30;1132;-81
2022/05/26 01:07:06;;;;;;;;;;;28.70;48.00;;;;;;650453;30;980;-81
2022/05/26 01:07:32;;;;;;;;;;;28.70;48.10;;;;;;650454;30;960;-80
2022/05/26 01:07:53;;;;;;;;;;;28.70;48.10;;;;;;650530;30;909;-81
2022/05/26 01:08:17;;;;;;;;;;;28.70;48.10;;;;;;650286;30;813;-80
2022/05/26 01:08:42;;;;;;;;;;;28.70;48.10;;;;;;650426;30;869;-81
2022/05/26 01:09:04;;;;;;;;;;;28.70;48.10;;;;;;650384;30;1020;-80
2022/05/26 01:09:25;;;;;;;;;;;28.70;48.10;;;;;;650528;30;841;-81
2022/05/26 01:09:45;;;;;;;;;;;28.70;48.10;;;;;;650394;30;860;-82
2022/05/26 01:10:07;;;;;;;;;;;28.70;48.10;;;;;;650358;30;864;-81
2022/05/26 01:10:28;;;;;;;;;;;28.70;48.10;;;;;;650380;30;874;-80
2022/05/26 01:10:48;;;;;;;;;;;28.70;48.10;;;;;;650513;30;858;-81
2022/05/26 01:11:09;;;;;;;;;;;28.70;48.20;;;;;;650417;30;936;-81
2022/05/26 01:11:31;;;;;;;;;;;28.70;48.10;;;;;;650480;30;944;-80
2022/05/26 01:11:51;;;;;;;;;;;28.70;48.10;;;;;;650548;30;1035;-82
2022/05/26 01:12:12;;;;;;;;;;;28.70;48.10;;;;;;650422;30;868;-81
2022/05/26 01:12:32;;;;;;;;;;;28.70;48.20;;;;;;647953;30;1598;-81
2022/05/26 01:12:54;;;;;;;;;;;28.70;48.20;;;;;;648038;30;1322;-81
2022/05/26 01:13:16;;;;;;;;;;;28.70;48.20;;;;;;648040;30;790;-81
2022/05/26 01:13:40;;;;;;;;;;;28.70;48.20;;;;;;648011;30;854;-80
2022/05/26 01:14:03;;;;;;;;;;;28.70;48.20;;;;;;647996;30;846;-80
2022/05/26 01:14:26;;;;;;;;;;;28.70;48.20;;;;;;649374;30;897;-81
2022/05/26 01:14:48;;;;;;;;;;;28.70;48.30;;;;;;650465;30;815;-81
2022/05/26 01:15:10;;;;;;;;;;;28.70;48.30;;;;;;650397;30;850;-81
2022/05/26 01:15:35;;;;;;;;;;;28.70;48.20;;;;;;650233;30;2031;-80
2022/05/26 01:15:57;;;;;;;;;;;28.70;48.20;;;;;;650543;30;968;-80
2022/05/26 01:16:23;;;;;;;;;;;28.70;48.20;;;;;;650469;30;924;-80
2022/05/26 01:16:43;;;;;;;;;;;28.60;48.10;;;;;;650367;30;834;-80
2022/05/26 01:17:04;;;;;;;;;;;28.70;48.30;;;;;;648026;30;1199;-81
2022/05/26 01:17:30;;;;;;;;;;;28.70;48.30;;;;;;648116;30;874;-80
2022/05/26 01:17:59;;;;;;;;;;;28.70;48.30;;;;;;647904;30;1080;-80
2022/05/26 01:18:38;;;;;;;;;;;28.70;48.40;;;;;;648097;30;826;-82
2022/05/26 01:19:17;;;;;;;;;;;28.70;48.30;;;;;;649520;30;844;-82
2022/05/26 01:19:56;;;;;;;;;;;28.60;48.20;;;;;;650393;30;929;-80
2022/05/26 01:20:34;;;;;;;;;;;28.60;48.30;;;;;;650487;30;861;-81
2022/05/26 01:21:14;;;;;;;;;;;28.60;48.20;;;;;;650346;30;1944;-82
2022/05/26 01:21:56;;;;;;;;;;;28.70;48.40;;;;;;649746;30;1150;-80
2022/05/26 01:22:26;;;;;;;;;;;28.60;48.30;;;;;;650595;30;873;-80
2022/05/26 01:23:01;;;;;;;;;;;28.70;48.80;;;;;;650488;30;897;-82
2022/05/26 01:23:27;;;;;;;;;;;28.60;48.40;;;;;;650429;30;971;-82
2022/05/26 01:24:07;;;;;;;;;;;28.60;48.40;;;;;;650485;30;917;-80
2022/05/26 01:24:30;;;;;;;;;;;28.60;48.40;;;;;;650426;30;845;-80
2022/05/26 01:24:50;;;;;;;;;;;28.70;48.50;;;;;;650439;30;913;-82
2022/05/26 01:25:14;;;;;;;;;;;29.50;49.10;;;;;;650494;30;607;-80
2022/05/26 01:25:43;;;;;;;;;;;28.60;48.40;;;;;;650364;30;892;-81
2022/05/26 01:26:27;;;;;;;;;;;28.60;49.60;;;;;;650310;30;1397;-79
2022/05/26 01:26:50;;;;;;;;;;;28.60;49.60;;;;;;650402;30;869;-81
2022/05/26 01:27:28;;;;;;;;;;;28.60;48.50;;;;;;650319;30;976;-81
2022/05/26 01:28:07;;;;;;;;;;;28.60;48.50;;;;;;650528;30;829;-81
2022/05/26 01:28:30;;;;;;;;;;;28.60;48.50;;;;;;650322;30;1204;-81
2022/05/26 01:28:54;;;;;;;;;;;28.60;48.50;;;;;;650462;30;810;-80
2022/05/26 01:29:26;;;;;;;;;;;28.60;48.50;;;;;;650335;30;873;-81
2022/05/26 01:29:51;;;;;;;;;;;28.60;48.60;;;;;;650509;30;925;-82
2022/05/26 01:30:23;;;;;;;;;;;28.60;48.50;;;;;;650405;30;823;-80
2022/05/26 01:31:02;;;;;;;;;;;28.60;48.70;;;;;;650363;30;794;-81
2022/05/26 01:31:35;;;;;;;;;;;28.60;48.60;;;;;;650382;30;969;-82
2022/05/26 01:31:57;;;;;;;;;;;28.60;48.60;;;;;;650502;30;920;-80
2022/05/26 01:32:44;;;;;;;;;;;28.60;48.60;;;;;;650377;30;1044;-81
2022/05/26 01:33:05;;;;;;;;;;;28.60;48.60;;;;;;650413;30;866;-81
2022/05/26 01:33:41;;;;;;;;;;;28.60;48.80;;;;;;650410;30;889;-82
2022/05/26 01:34:16;;;;;;;;;;;28.60;48.70;;;;;;650419;30;868;-81
2022/05/26 01:34:42;;;;;;;;;;;28.70;48.80;;;;;;650326;30;897;-80
2022/05/26 01:35:03;;;;;;;;;;;28.60;48.80;;;;;;660298;30;858;-81
2022/05/26 01:35:34;;;;;;;;;;;28.60;48.70;;;;;;660495;29;813;-81
2022/05/26 01:36:13;;;;;;;;;;;28.60;48.80;;;;;;660552;30;778;-81
2022/05/26 01:36:53;;;;;;;;;;;28.60;48.80;;;;;;660329;29;895;-82
2022/05/26 01:37:23;;;;;;;;;;;28.60;48.80;;;;;;660440;30;810;-81
2022/05/26 01:38:02;;;;;;;;;;;28.60;48.80;;;;;;660250;30;907;-80
2022/05/26 01:38:30;;;;;;;;;;;28.60;48.70;;;;;;660564;29;968;-81
2022/05/26 01:39:08;;;;;;;;;;;28.60;48.80;;;;;;660475;30;911;-81
2022/05/26 01:39:35;;;;;;;;;;;28.60;48.80;;;;;;660431;30;821;-80
2022/05/26 01:40:07;;;;;;;;;;;28.60;48.90;;;;;;660491;30;866;-81
2022/05/26 01:40:41;;;;;;;;;;;28.60;48.90;;;;;;659682;30;1048;-80
2022/05/26 01:41:10;;;;;;;;;;;28.60;48.90;;;;;;660166;30;1872;-81
2022/05/26 01:41:30;;;;;;;;;;;28.40;48.70;;;;;;660168;30;876;-81
2022/05/26 01:41:54;;;;;;;;;;;28.50;48.90;;;;;;660322;30;818;-82
2022/05/26 01:42:21;;;;;;;;;;;28.60;48.90;;;;;;660244;30;940;-82
2022/05/26 01:42:48;;;;;;;;;;;28.50;48.80;;;;;;660379;30;860;-81
2022/05/26 01:43:08;;;;;;;;;;;28.60;48.90;;;;;;660351;30;833;-81
2022/05/26 01:43:52;;;;;;;;;;;28.60;48.90;;;;;;660406;30;905;-82
2022/05/26 01:44:31;;;;;;;;;;;28.50;48.80;;;;;;650242;30;1209;-81
2022/05/26 01:44:53;;;;;;;;;;;28.50;48.90;;;;;;650392;30;818;-80
2022/05/26 01:45:23;;;;;;;;;;;28.50;48.90;;;;;;650211;30;1365;-82
2022/05/26 01:45:46;;;;;;;;;;;28.50;48.90;;;;;;650241;30;853;-82
2022/05/26 01:46:22;;;;;;;;;;;28.60;49.00;;;;;;650377;30;892;-81
2022/05/26 01:46:44;;;;;;;;;;;28.50;49.00;;;;;;650251;30;996;-82
2022/05/26 01:47:25;;;;;;;;;;;28.60;49.10;;;;;;650287;30;933;-83
2022/05/26 01:48:04;;;;;;;;;;;28.50;48.90;;;;;;640703;30;1540;-81
2022/05/26 01:48:24;;;;;;;;;;;28.60;48.90;;;;;;640972;30;815;-80
2022/05/26 01:48:48;;;;;;;;;;;28.60;48.90;;;;;;640621;30;1301;-82
2022/05/26 01:49:18;;;;;;;;;;;28.60;48.90;;;;;;640951;30;816;-82
2022/05/26 01:49:43;;;;;;;;;;;28.60;48.80;;;;;;640833;30;866;-82
2022/05/26 01:50:16;;;;;;;;;;;28.60;48.80;;;;;;640842;30;1021;-81
2022/05/26 01:50:40;;;;;;;;;;;28.60;48.70;;;;;;640852;30;784;-81
2022/05/26 01:51:19;;;;;;;;;;;28.60;48.70;;;;;;640876;30;846;-81
2022/05/26 01:51:55;;;;;;;;;;;28.60;48.70;;;;;;638568;31;883;-81
2022/05/26 01:52:23;;;;;;;;;;;28.60;48.70;;;;;;638629;31;989;-82
2022/05/26 01:53:08;;;;;;;;;;;28.60;48.60;;;;;;638464;31;931;-82
2022/05/26 01:53:32;;;;;;;;;;;28.60;48.50;;;;;;639378;30;870;-82
2022/05/26 01:53:59;;;;;;;;;;;28.60;48.50;;;;;;640932;30;893;-82
2022/05/26 01:54:26;;;;;;;;;;;28.60;48.50;;;;;;641062;30;851;-81
2022/05/26 01:55:05;;;;;;;;;;;28.70;48.60;;;;;;641008;30;807;-81
2022/05/26 01:55:33;;;;;;;;;;;28.70;48.50;;;;;;640926;30;960;-81
2022/05/26 01:56:01;;;;;;;;;;;28.70;48.50;;;;;;640941;30;898;-82
2022/05/26 01:56:31;;;;;;;;;;;28.60;48.40;;;;;;640889;30;1183;-81
2022/05/26 01:56:51;;;;;;;;;;;28.60;48.40;;;;;;640982;30;796;-82
2022/05/26 01:57:15;;;;;;;;;;;28.60;48.30;;;;;;640941;30;792;-82
2022/05/26 01:57:43;;;;;;;;;;;28.60;48.30;;;;;;640892;30;902;-82
2022/05/26 01:58:09;;;;;;;;;;;28.70;48.40;;;;;;640862;30;902;-81
2022/05/26 01:58:34;;;;;;;;;;;28.60;48.30;;;;;;640744;30;867;-82
2022/05/26 01:59:05;;;;;;;;;;;28.70;48.30;;;;;;640750;30;901;-82
2022/05/26 01:59:35;;;;;;;;;;;28.70;48.30;;;;;;640969;30;963;-82
2022/05/26 02:00:00;;;;;;;;;;;28.70;48.30;;;;;;640859;30;796;-82
2022/05/26 02:00:21;;;;;;;;;;;28.70;49.40;;;;;;640995;30;831;-82
2022/05/26 02:00:42;;;;;;;;;;;28.70;48.30;;;;;;640862;30;874;-82
2022/05/26 02:01:06;;;;;;;;;;;28.70;48.10;;;;;;638376;30;2003;-81
2022/05/26 02:01:28;;;;;;;;;;;28.70;48.10;;;;;;638482;30;1352;-81
2022/05/26 02:01:54;;;;;;;;;;;28.70;48.10;;;;;;638677;31;919;-82
2022/05/26 02:02:22;;;;;;;;;;;28.70;48.10;;;;;;638564;30;899;-82
2022/05/26 02:03:06;;;;;;;;;;;28.70;48.10;;;;;;638513;31;851;-82
2022/05/26 02:03:28;;;;;;;;;;;28.70;48.10;;;;;;640518;30;1309;-80
2022/05/26 02:03:50;;;;;;;;;;;28.70;48.10;;;;;;641205;30;1364;-81
2022/05/26 02:04:16;;;;;;;;;;;28.70;48.00;;;;;;640879;30;926;-82
2022/05/26 02:04:42;;;;;;;;;;;28.70;48.10;;;;;;640833;30;874;-81
2022/05/26 02:05:17;;;;;;;;;;;28.70;48.10;;;;;;640745;30;851;-82
2022/05/26 02:05:41;;;;;;;;;;;28.70;48.00;;;;;;640822;30;930;-81
2022/05/26 02:06:07;;;;;;;;;;;28.70;48.00;;;;;;638476;31;1661;-80
2022/05/26 02:06:30;;;;;;;;;;;28.70;48.00;;;;;;638505;31;1039;-81
2022/05/26 02:06:54;;;;;;;;;;;28.70;48.00;;;;;;638579;30;934;-82
2022/05/26 02:07:21;;;;;;;;;;;28.70;48.00;;;;;;638473;31;909;-81
2022/05/26 02:07:50;;;;;;;;;;;28.70;47.90;;;;;;638094;31;1310;-81
2022/05/26 02:08:11;;;;;;;;;;;28.70;47.90;;;;;;640719;30;1353;-81
2022/05/26 02:08:34;;;;;;;;;;;26.80;46.60;;;;;;640847;30;834;-81
2022/05/26 02:09:02;;;;;;;;;;;28.70;47.90;;;;;;640996;30;882;-81
2022/05/26 02:09:25;;;;;;;;;;;28.70;47.90;;;;;;640904;30;983;-81
2022/05/26 02:09:47;;;;;;;;;;;28.80;47.90;;;;;;641012;30;810;-82
2022/05/26 02:10:28;;;;;;;;;;;28.70;47.90;;;;;;640833;30;922;-81
2022/05/26 02:11:05;;;;;;;;;;;28.70;47.90;;;;;;640598;30;1193;-82
2022/05/26 02:11:26;;;;;;;;;;;28.70;47.80;;;;;;640964;30;803;-82
2022/05/26 02:11:52;;;;;;;;;;;28.70;47.90;;;;;;640936;30;929;-81
2022/05/26 02:12:19;;;;;;;;;;;28.70;47.80;;;;;;640769;30;960;-80
2022/05/26 02:12:46;;;;;;;;;;;28.70;47.80;;;;;;640808;30;872;-82
2022/05/26 02:13:17;;;;;;;;;;;28.80;47.90;;;;;;640739;30;1053;-80
2022/05/26 02:13:40;;;;;;;;;;;28.70;47.80;;;;;;640781;30;928;-79
2022/05/26 02:14:21;;;;;;;;;;;28.70;47.80;;;;;;640875;30;819;-81
2022/05/26 02:14:47;;;;;;;;;;;28.70;47.80;;;;;;638521;31;962;-81
2022/05/26 02:15:10;;;;;;;;;;;28.70;47.80;;;;;;638543;31;850;-81
2022/05/26 02:15:39;;;;;;;;;;;28.70;47.80;;;;;;638462;31;906;-80
2022/05/26 02:16:04;;;;;;;;;;;28.80;47.70;;;;;;639008;31;1031;-82
2022/05/26 02:16:38;;;;;;;;;;;28.80;47.80;;;;;;639125;30;910;-82
2022/05/26 02:17:03;;;;;;;;;;;28.80;47.70;;;;;;638797;31;820;-81
2022/05/26 02:17:30;;;;;;;;;;;28.80;47.70;;;;;;639079;31;1047;-82
2022/05/26 02:17:55;;;;;;;;;;;28.70;47.60;;;;;;638843;30;1341;-79
2022/05/26 02:18:18;;;;;;;;;;;28.70;47.60;;;;;;638840;31;1347;-82
2022/05/26 02:18:42;;;;;;;;;;;28.70;47.60;;;;;;638914;30;839;-82
2022/05/26 02:19:09;;;;;;;;;;;28.70;47.50;;;;;;638849;30;897;-81
2022/05/26 02:19:37;;;;;;;;;;;28.70;47.60;;;;;;638853;30;1165;-83
2022/05/26 02:20:01;;;;;;;;;;;28.70;47.50;;;;;;638595;31;1670;-82
2022/05/26 02:20:27;;;;;;;;;;;28.70;47.50;;;;;;638666;30;797;-81
2022/05/26 02:20:54;;;;;;;;;;;28.70;47.60;;;;;;638740;31;1948;-82
2022/05/26 02:21:20;;;;;;;;;;;28.70;47.50;;;;;;638586;31;887;-82
2022/05/26 02:21:40;;;;;;;;;;;28.70;47.50;;;;;;638554;30;901;-81
2022/05/26 02:22:14;;;;;;;;;;;28.70;47.60;;;;;;638568;30;1104;-81
2022/05/26 02:23:00;;;;;;;;;;;28.70;47.50;;;;;;645870;30;898;-82
2022/05/26 02:23:28;;;;;;;;;;;28.70;47.60;;;;;;645855;30;1355;-82
2022/05/26 02:24:05;;;;;;;;;;;28.70;47.50;;;;;;645902;30;890;-82
2022/05/26 02:24:29;;;;;;;;;;;28.70;47.50;;;;;;645779;30;961;-82
2022/05/26 02:25:04;;;;;;;;;;;28.70;47.60;;;;;;645707;30;890;-82
2022/05/26 02:25:26;;;;;;;;;;;28.70;47.50;;;;;;645725;30;901;-82
2022/05/26 02:25:47;;;;;;;;;;;28.70;47.50;;;;;;645864;30;950;-82
2022/05/26 02:26:08;;;;;;;;;;;28.70;47.50;;;;;;657635;30;845;-82
2022/05/26 02:26:29;;;;;;;;;;;28.70;47.50;;;;;;657753;30;843;-82
2022/05/26 02:26:50;;;;;;;;;;;28.70;47.60;;;;;;658718;30;927;-81
2022/05/26 02:27:11;;;;;;;;;;;28.60;47.50;;;;;;659457;30;1112;-80
2022/05/26 02:27:32;;;;;;;;;;;28.70;47.50;;;;;;658791;30;1087;-80
2022/05/26 02:27:54;;;;;;;;;;;28.70;47.50;;;;;;658644;30;868;-79
2022/05/26 02:28:14;;;;;;;;;;;28.70;47.60;;;;;;658599;30;900;-78
2022/05/26 02:29:55;;;;;;;;;;;28.60;47.60;;;;;;657802;30;1348;-79
2022/05/26 02:30:17;;;;;;;;;;;28.70;47.60;;;;;;657917;30;892;-81
2022/05/26 02:30:40;;;;;;;;;;;28.70;47.60;;;;;;657977;30;844;-80
2022/05/26 02:31:00;;;;;;;;;;;28.60;47.60;;;;;;658205;30;1415;-80
2022/05/26 02:31:24;;;;;;;;;;;28.60;47.50;;;;;;658348;30;829;-79
2022/05/26 02:31:45;;;;;;;;;;;28.60;47.60;;;;;;658404;30;876;-78
2022/05/26 02:32:07;;;;;;;;;;;28.60;47.60;;;;;;658554;30;884;-79
2022/05/26 02:32:30;;;;;;;;;;;28.60;47.60;;;;;;657931;30;841;-79
2022/05/26 02:32:52;;;;;;;;;;;28.60;47.60;;;;;;657923;30;999;-80
2022/05/26 02:33:14;;;;;;;;;;;28.60;47.60;;;;;;657950;30;844;-79
2022/05/26 02:33:35;;;;;;;;;;;28.60;47.60;;;;;;657886;30;1178;-78